Time;durP1;ratioP1;P1;durP2;ratioP2;P2;SDS_P1;SDS_P2;PMS_P1;PMS_P2;Temp;Humidity;BMP_temperature;BMP_pressure;BME280_temperature;BME280_humidity;BME280_pressure;Samples;Min_cycle;Max_cycle;Signal;HPM_P1;HPM_P2
2024/02/28 06:17:17;;;;;;;;;13.75;12.25;;;;;;;;5228961;23;11421;-67
2024/02/28 06:19:42;;;;;;;;;12.00;10.00;;;;;;;;4913860;29;11606;-68
2024/02/28 06:22:08;;;;;;;;;13.75;9.75;;;;;;;;4913931;29;8875;-68
2024/02/28 06:24:36;;;;;;;;;12.75;10.00;;;;;;;;4912974;29;8940;-67
2024/02/28 06:27:05;;;;;;;;;9.00;7.25;;;;;;;;4914249;29;8839;-66
2024/02/28 06:29:30;;;;;;;;;9.25;9.25;;;;;;;;4914085;29;11591;-66
2024/02/28 06:31:55;;;;;;;;;11.75;9.00;;;;;;;;4914000;29;11602;-65
2024/02/28 06:34:22;;;;;;;;;9.25;8.50;;;;;;;;4912725;29;8821;-70
2024/02/28 06:36:47;;;;;;;;;9.50;8.00;;;;;;;;4914047;29;8835;-67
2024/02/28 06:39:13;;;;;;;;;8.75;8.00;;;;;;;;4914085;29;11545;-66
2024/02/28 06:41:40;;;;;;;;;4.00;3.25;;;;;;;;4914125;29;8844;-66
2024/02/28 06:44:07;;;;;;;;;9.25;7.00;;;;;;;;4914137;29;8789;-67
2024/02/28 06:46:33;;;;;;;;;12.25;8.00;;;;;;;;4908999;29;11678;-66
2024/02/28 06:48:58;;;;;;;;;11.25;11.25;;;;;;;;4913574;29;11570;-68
2024/02/28 06:51:23;;;;;;;;;11.75;9.00;;;;;;;;4913970;29;8782;-73
2024/02/28 06:53:48;;;;;;;;;7.75;7.75;;;;;;;;4914010;29;8809;-80
2024/02/28 06:56:14;;;;;;;;;8.00;6.00;;;;;;;;4913850;29;9531;-72
2024/02/28 06:58:39;;;;;;;;;7.00;7.00;;;;;;;;4914008;29;8832;-67
2024/02/28 07:01:04;;;;;;;;;7.75;7.75;;;;;;;;4913775;29;8905;-68
2024/02/28 07:03:30;;;;;;;;;7.75;5.25;;;;;;;;4913731;29;8797;-71
2024/02/28 07:05:55;;;;;;;;;8.50;5.25;;;;;;;;4928351;29;8873;-71
2024/02/28 07:08:20;;;;;;;;;9.75;6.00;;;;;;;;4913772;29;8801;-67
2024/02/28 07:10:49;;;;;;;;;2.75;2.00;;;;;;;;4913752;29;8880;-68
2024/02/28 07:13:14;;;;;;;;;4.50;3.00;;;;;;;;4913751;29;8932;-67
2024/02/28 07:15:41;;;;;;;;;2.00;2.00;;;;;;;;4913453;29;12371;-67
2024/02/28 07:18:06;;;;;;;;;3.75;2.00;;;;;;;;4916635;29;8843;-67
2024/02/28 07:20:32;;;;;;;;;2.00;1.50;;;;;;;;4917016;29;11510;-67
2024/02/28 07:22:57;;;;;;;;;3.00;2.25;;;;;;;;4916951;29;8802;-67
2024/02/28 07:25:22;;;;;;;;;2.00;2.00;;;;;;;;4916981;29;8847;-67
2024/02/28 07:27:47;;;;;;;;;2.00;2.00;;;;;;;;4916946;29;8928;-68
2024/02/28 07:30:13;;;;;;;;;1.75;1.00;;;;;;;;4916530;29;8809;-68
2024/02/28 07:32:38;;;;;;;;;2.00;1.25;;;;;;;;4931376;29;8828;-68
2024/02/28 07:35:04;;;;;;;;;1.75;1.00;;;;;;;;4916908;29;8782;-67
2024/02/28 07:37:29;;;;;;;;;4.00;2.50;;;;;;;;4916694;29;8817;-68
2024/02/28 07:39:54;;;;;;;;;2.25;1.75;;;;;;;;4917471;29;8813;-68
2024/02/28 07:42:19;;;;;;;;;2.75;2.00;;;;;;;;4935619;29;9782;-67
2024/02/28 07:44:45;;;;;;;;;2.50;1.25;;;;;;;;4935512;29;8858;-67
2024/02/28 07:47:10;;;;;;;;;3.75;2.25;;;;;;;;4932727;29;8809;-68
2024/02/28 07:49:35;;;;;;;;;1.75;1.75;;;;;;;;4916405;29;8833;-67
2024/02/28 07:52:03;;;;;;;;;8.75;7.00;;;;;;;;4916487;29;9589;-68
2024/02/28 07:54:29;;;;;;;;;3.00;2.00;;;;;;;;4916376;29;8919;-67
2024/02/28 07:56:57;;;;;;;;;4.00;2.00;;;;;;;;4916414;29;12404;-68
2024/02/28 07:59:23;;;;;;;;;3.00;3.00;;;;;;;;4916173;29;8855;-67
2024/02/28 08:01:48;;;;;;;;;3.00;2.25;;;;;;;;4916255;29;11523;-67
2024/02/28 08:04:15;;;;;;;;;3.00;2.00;;;;;;;;4915771;29;8777;-67
2024/02/28 08:06:41;;;;;;;;;2.00;2.00;;;;;;;;4916219;29;8823;-67
2024/02/28 08:09:07;;;;;;;;;3.25;2.00;;;;;;;;4915267;29;11530;-68
2024/02/28 08:11:35;;;;;;;;;3.75;2.00;;;;;;;;4916305;29;8793;-67
2024/02/28 08:14:00;;;;;;;;;3.00;3.00;;;;;;;;4915903;29;11697;-67
2024/02/28 08:16:25;;;;;;;;;3.75;2.75;;;;;;;;4915761;29;11596;-68
2024/02/28 08:18:51;;;;;;;;;2.00;2.00;;;;;;;;4916039;29;8801;-67
2024/02/28 08:21:17;;;;;;;;;1.00;1.00;;;;;;;;4916067;29;9474;-68
2024/02/28 08:23:43;;;;;;;;;2.25;2.25;;;;;;;;4916213;29;8921;-68
2024/02/28 08:26:08;;;;;;;;;3.25;3.25;;;;;;;;4915836;29;11588;-64
2024/02/28 08:28:33;;;;;;;;;3.75;3.00;;;;;;;;4915856;29;8789;-67
2024/02/28 08:30:59;;;;;;;;;4.00;4.00;;;;;;;;4915687;29;8832;-67
2024/02/28 08:33:24;;;;;;;;;3.75;3.00;;;;;;;;4930437;29;8820;-67
2024/02/28 08:35:52;;;;;;;;;3.00;3.00;;;;;;;;4915885;29;8801;-66
2024/02/28 08:38:17;;;;;;;;;5.25;4.00;;;;;;;;4915822;29;8840;-66
2024/02/28 08:40:43;;;;;;;;;2.50;2.50;;;;;;;;4915579;29;11544;-69
2024/02/28 08:43:08;;;;;;;;;8.00;4.00;;;;;;;;4914474;29;8829;-68
2024/02/28 08:45:33;;;;;;;;;5.00;3.25;;;;;;;;4915277;29;8880;-66
2024/02/28 08:48:01;;;;;;;;;3.50;3.00;;;;;;;;4914188;29;8821;-66
2024/02/28 08:50:26;;;;;;;;;9.50;3.50;;;;;;;;4915646;29;9543;-67
2024/02/28 08:52:51;;;;;;;;;5.00;4.25;;;;;;;;4915396;29;11542;-65
2024/02/28 08:55:18;;;;;;;;;4.00;4.00;;;;;;;;4915459;29;8790;-65
2024/02/28 08:57:44;;;;;;;;;2.25;2.25;;;;;;;;4915495;29;8805;-64
2024/02/28 09:00:09;;;;;;;;;4.50;3.75;;;;;;;;4913768;29;11608;-63
2024/02/28 09:02:36;;;;;;;;;5.25;4.50;;;;;;;;4915388;29;8801;-63
2024/02/28 09:05:02;;;;;;;;;5.00;3.50;;;;;;;;4929868;29;8824;-63
2024/02/28 09:07:27;;;;;;;;;3.25;1.75;;;;;;;;4929814;29;11490;-63
2024/02/28 09:09:52;;;;;;;;;2.00;2.00;;;;;;;;4919913;29;8805;-63
2024/02/28 09:12:17;;;;;;;;;3.00;3.00;;;;;;;;4925103;29;8803;-64
2024/02/28 09:14:44;;;;;;;;;2.25;1.75;;;;;;;;4923434;29;8813;-64
2024/02/28 09:17:09;;;;;;;;;3.00;3.00;;;;;;;;4925067;29;8873;-64
2024/02/28 09:19:35;;;;;;;;;4.00;2.75;;;;;;;;4922675;29;11610;-64
2024/02/28 09:22:00;;;;;;;;;2.00;2.00;;;;;;;;4923658;29;8849;-63
2024/02/28 09:24:26;;;;;;;;;6.25;3.25;;;;;;;;4922972;29;8928;-64
2024/02/28 09:26:51;;;;;;;;;5.00;5.00;;;;;;;;4923579;29;8809;-64
2024/02/28 09:29:16;;;;;;;;;4.00;4.00;;;;;;;;4923079;29;9610;-63
2024/02/28 09:31:41;;;;;;;;;5.50;4.00;;;;;;;;4927716;29;8790;-63
2024/02/28 09:34:07;;;;;;;;;2.00;2.00;;;;;;;;4927165;29;8821;-63
2024/02/28 09:36:33;;;;;;;;;4.00;2.25;;;;;;;;4914892;29;8809;-63
2024/02/28 09:38:58;;;;;;;;;4.00;3.50;;;;;;;;4914713;29;8809;-66
2024/02/28 09:41:26;;;;;;;;;3.00;3.00;;;;;;;;4914542;29;8804;-65
2024/02/28 09:43:52;;;;;;;;;3.25;3.25;;;;;;;;4914454;29;8811;-66
2024/02/28 09:46:17;;;;;;;;;3.75;3.75;;;;;;;;4914485;29;11467;-66
2024/02/28 09:48:42;;;;;;;;;3.75;3.75;;;;;;;;4914547;29;9007;-65
2024/02/28 09:51:09;;;;;;;;;4.25;3.25;;;;;;;;4914608;29;8809;-65
2024/02/28 09:53:34;;;;;;;;;4.00;3.75;;;;;;;;4914586;29;8872;-64
2024/02/28 09:56:00;;;;;;;;;5.75;4.00;;;;;;;;4914337;29;11474;-63
2024/02/28 09:58:26;;;;;;;;;3.00;2.00;;;;;;;;4914267;29;8805;-63
2024/02/28 10:00:53;;;;;;;;;2.25;2.25;;;;;;;;4913305;29;8794;-65
2024/02/28 10:03:19;;;;;;;;;2.00;2.00;;;;;;;;4914421;29;11881;-65
2024/02/28 10:05:45;;;;;;;;;4.50;3.00;;;;;;;;4914375;29;11154;-62
2024/02/28 10:08:11;;;;;;;;;5.00;4.00;;;;;;;;4914435;29;8805;-64
2024/02/28 10:10:38;;;;;;;;;7.50;5.75;;;;;;;;4913958;29;11546;-63
2024/02/28 10:13:03;;;;;;;;;4.25;4.00;;;;;;;;4913959;29;8891;-63
2024/02/28 10:15:28;;;;;;;;;6.00;4.00;;;;;;;;4914537;29;11108;-66
2024/02/28 10:17:54;;;;;;;;;4.75;4.75;;;;;;;;4914303;29;8868;-65
2024/02/28 10:20:19;;;;;;;;;4.00;4.00;;;;;;;;4914242;29;8817;-64
2024/02/28 10:22:44;;;;;;;;;7.50;3.00;;;;;;;;4914434;29;8831;-64
2024/02/28 10:25:10;;;;;;;;;5.00;4.50;;;;;;;;4914338;29;9823;-64
2024/02/28 10:27:35;;;;;;;;;6.75;6.00;;;;;;;;4913829;29;8821;-64
2024/02/28 10:30:04;;;;;;;;;5.00;4.00;;;;;;;;4914190;29;8837;-64
2024/02/28 10:32:30;;;;;;;;;4.00;4.00;;;;;;;;4928781;29;8810;-64
2024/02/28 10:34:55;;;;;;;;;9.50;6.75;;;;;;;;4914042;29;11962;-64
2024/02/28 10:37:21;;;;;;;;;10.50;7.00;;;;;;;;4914084;29;8797;-64
2024/02/28 10:39:47;;;;;;;;;6.00;5.00;;;;;;;;4914193;29;8818;-63
2024/02/28 10:42:13;;;;;;;;;6.25;5.25;;;;;;;;4913715;29;10952;-64
2024/02/28 10:44:38;;;;;;;;;5.00;5.00;;;;;;;;4914166;29;8809;-64
2024/02/28 10:47:07;;;;;;;;;11.50;4.75;;;;;;;;4913917;29;10692;-63
2024/02/28 10:49:32;;;;;;;;;7.25;4.50;;;;;;;;4914186;29;9548;-63
2024/02/28 10:51:58;;;;;;;;;9.25;5.00;;;;;;;;4915175;29;10677;-64
2024/02/28 10:54:24;;;;;;;;;9.00;5.25;;;;;;;;4917710;29;8825;-64
2024/02/28 10:56:51;;;;;;;;;10.00;5.75;;;;;;;;4931920;29;10389;-63
2024/02/28 10:59:16;;;;;;;;;7.50;5.75;;;;;;;;4917380;29;10118;-63
2024/02/28 11:01:43;;;;;;;;;3.33;3.33;;;;;;;;4917495;29;9511;-63
2024/02/28 11:04:10;;;;;;;;;7.75;5.25;;;;;;;;4916277;29;8848;-62
2024/02/28 11:06:35;;;;;;;;;5.00;4.50;;;;;;;;4917515;29;8805;-63
2024/02/28 11:09:01;;;;;;;;;7.33;4.33;;;;;;;;4917422;29;8801;-62
2024/02/28 11:11:30;;;;;;;;;5.33;4.00;;;;;;;;4917295;29;8839;-64
2024/02/28 11:13:56;;;;;;;;;6.25;6.00;;;;;;;;4917195;29;9122;-64
2024/02/28 11:16:29;;;;;;;;;7.67;6.00;;;;;;;;4915984;29;8821;-64
2024/02/28 11:18:54;;;;;;;;;7.00;7.00;;;;;;;;4917453;29;8837;-62
2024/02/28 11:21:19;;;;;;;;;15.00;12.67;;;;;;;;4915843;29;8845;-64
2024/02/28 11:23:48;;;;;;;;;8.00;3.67;;;;;;;;4915816;29;9578;-65
2024/02/28 11:26:13;;;;;;;;;6.00;6.00;;;;;;;;4917253;29;8812;-64
2024/02/28 11:28:39;;;;;;;;;5.00;4.00;;;;;;;;4915776;29;8967;-65
2024/02/28 11:31:04;;;;;;;;;8.00;4.25;;;;;;;;4917136;29;8856;-63
2024/02/28 11:33:30;;;;;;;;;5.00;4.50;;;;;;;;4917028;29;8813;-62
2024/02/28 11:35:56;;;;;;;;;5.50;3.50;;;;;;;;4931461;29;9407;-64
2024/02/28 11:38:23;;;;;;;;;4.00;4.00;;;;;;;;4931418;29;8845;-65
2024/02/28 11:40:49;;;;;;;;;8.25;7.50;;;;;;;;4916887;29;9764;-65
2024/02/28 11:43:15;;;;;;;;;7.50;7.25;;;;;;;;4931363;29;9919;-65
2024/02/28 11:45:41;;;;;;;;;10.25;4.75;;;;;;;;4917001;29;9036;-64
2024/02/28 11:48:07;;;;;;;;;5.00;3.00;;;;;;;;4916606;29;8859;-64
2024/02/28 11:50:32;;;;;;;;;7.00;4.00;;;;;;;;4916681;29;9793;-65
2024/02/28 11:52:57;;;;;;;;;4.50;3.50;;;;;;;;4916582;29;8836;-64
2024/02/28 11:55:24;;;;;;;;;4.50;3.00;;;;;;;;4916684;29;8831;-64
2024/02/28 11:57:50;;;;;;;;;4.00;4.00;;;;;;;;4916665;29;8825;-64
2024/02/28 12:00:16;;;;;;;;;3.75;2.00;;;;;;;;4931111;29;10226;-64
2024/02/28 12:02:41;;;;;;;;;5.00;4.00;;;;;;;;4916162;29;10474;-64
2024/02/28 12:05:07;;;;;;;;;4.75;3.50;;;;;;;;4916263;29;8829;-65
2024/02/28 12:07:32;;;;;;;;;5.00;4.00;;;;;;;;4916246;29;8940;-64
2024/02/28 12:09:58;;;;;;;;;4.00;3.50;;;;;;;;4916254;29;8838;-64
2024/02/28 12:12:24;;;;;;;;;2.25;2.25;;;;;;;;4916177;29;8848;-64
2024/02/28 12:14:50;;;;;;;;;4.25;3.00;;;;;;;;4916264;29;8918;-63
2024/02/28 12:17:15;;;;;;;;;6.00;4.50;;;;;;;;4916074;29;10467;-63
2024/02/28 12:19:42;;;;;;;;;3.25;3.25;;;;;;;;4916397;29;8821;-64
2024/02/28 12:22:07;;;;;;;;;4.00;3.00;;;;;;;;4930696;29;8817;-63
2024/02/28 12:24:32;;;;;;;;;6.00;4.25;;;;;;;;4916389;29;10248;-64
2024/02/28 12:26:58;;;;;;;;;5.25;2.00;;;;;;;;4915862;29;8789;-63
2024/02/28 12:29:23;;;;;;;;;7.00;5.00;;;;;;;;4898863;29;8933;-64
2024/02/28 12:31:48;;;;;;;;;4.00;4.00;;;;;;;;4924062;29;9221;-63
2024/02/28 12:34:15;;;;;;;;;2.25;2.25;;;;;;;;4896395;29;8915;-64
2024/02/28 12:36:40;;;;;;;;;3.25;2.50;;;;;;;;4896985;29;8822;-64
2024/02/28 12:39:05;;;;;;;;;5.00;3.00;;;;;;;;4896922;29;10315;-64
2024/02/28 12:41:31;;;;;;;;;3.00;3.00;;;;;;;;4896891;29;8934;-63
2024/02/28 12:43:56;;;;;;;;;3.00;2.00;;;;;;;;4896930;29;8820;-63
2024/02/28 12:46:22;;;;;;;;;2.25;2.00;;;;;;;;4896519;29;8800;-62
2024/02/28 12:48:47;;;;;;;;;1.50;1.25;;;;;;;;4912054;29;8821;-62
2024/02/28 12:51:31;;;;;;;;;4.00;1.00;;;;;;;;4915571;29;8948;-63
2024/02/28 12:53:56;;;;;;;;;2.50;1.75;;;;;;;;4915582;29;8817;-62
2024/02/28 12:56:22;;;;;;;;;2.75;2.25;;;;;;;;4915357;29;10448;-62
2024/02/28 12:58:47;;;;;;;;;2.00;2.00;;;;;;;;4915497;29;8824;-62
2024/02/28 13:01:12;;;;;;;;;2.25;2.00;;;;;;;;4915196;29;9609;-62
2024/02/28 13:03:37;;;;;;;;;2.25;2.00;;;;;;;;4915259;29;8790;-62
2024/02/28 13:06:03;;;;;;;;;2.75;2.75;;;;;;;;4929678;29;8829;-62
2024/02/28 13:08:28;;;;;;;;;1.50;1.00;;;;;;;;4913914;29;8841;-62
2024/02/28 13:10:54;;;;;;;;;2.75;1.75;;;;;;;;4915181;29;8833;-62
2024/02/28 13:13:19;;;;;;;;;1.25;1.00;;;;;;;;4915411;29;8813;-65
2024/02/28 13:15:45;;;;;;;;;1.00;1.00;;;;;;;;4914540;29;9543;-63
2024/02/28 13:18:10;;;;;;;;;1.00;1.00;;;;;;;;4915306;29;9646;-63
2024/02/28 13:20:37;;;;;;;;;2.50;1.00;;;;;;;;4913540;29;8979;-64
2024/02/28 13:23:03;;;;;;;;;3.00;2.25;;;;;;;;4913909;29;8813;-64
2024/02/28 13:25:29;;;;;;;;;2.75;2.00;;;;;;;;4913810;29;10471;-64
2024/02/28 13:27:54;;;;;;;;;2.00;2.00;;;;;;;;4914930;29;9052;-64
2024/02/28 13:30:19;;;;;;;;;2.75;2.00;;;;;;;;4914741;29;8837;-65
2024/02/28 13:32:45;;;;;;;;;3.50;2.00;;;;;;;;4914575;29;8789;-63
2024/02/28 13:35:10;;;;;;;;;2.50;2.50;;;;;;;;4914517;29;9516;-63
2024/02/28 13:37:36;;;;;;;;;4.00;3.50;;;;;;;;4914671;29;8814;-63
2024/02/28 13:40:04;;;;;;;;;3.00;2.00;;;;;;;;4914497;29;9010;-63
2024/02/28 13:42:30;;;;;;;;;3.75;3.25;;;;;;;;4914628;29;10692;-63
2024/02/28 13:44:55;;;;;;;;;2.50;2.50;;;;;;;;4914645;29;11320;-63
2024/02/28 13:47:20;;;;;;;;;6.25;4.75;;;;;;;;4914296;29;8829;-64
2024/02/28 13:49:47;;;;;;;;;3.00;3.00;;;;;;;;4914337;29;8877;-64
2024/02/28 13:52:12;;;;;;;;;4.00;4.00;;;;;;;;4914507;29;8915;-64
2024/02/28 13:54:37;;;;;;;;;4.50;4.00;;;;;;;;4913079;29;10952;-64
2024/02/28 13:57:04;;;;;;;;;3.00;3.00;;;;;;;;4914521;29;8817;-65
2024/02/28 13:59:30;;;;;;;;;3.00;3.00;;;;;;;;4914450;29;9698;-64
2024/02/28 14:01:55;;;;;;;;;4.00;4.00;;;;;;;;4914201;29;10785;-65
2024/02/28 14:04:20;;;;;;;;;4.75;4.25;;;;;;;;4914313;29;8797;-64
2024/02/28 14:06:46;;;;;;;;;8.50;3.00;;;;;;;;4914352;29;8931;-64
2024/02/28 14:09:11;;;;;;;;;5.25;4.00;;;;;;;;4914269;29;8955;-64
2024/02/28 14:11:36;;;;;;;;;6.25;4.00;;;;;;;;4914293;29;8901;-78
2024/02/28 14:14:02;;;;;;;;;5.75;4.00;;;;;;;;4914311;29;9609;-64
2024/02/28 14:16:27;;;;;;;;;4.25;3.00;;;;;;;;4914434;29;8916;-64
2024/02/28 14:18:53;;;;;;;;;4.00;4.00;;;;;;;;4914000;29;8870;-65
2024/02/28 14:21:19;;;;;;;;;4.50;4.00;;;;;;;;4914134;29;8801;-64
2024/02/28 14:23:45;;;;;;;;;4.75;4.75;;;;;;;;4914375;29;8797;-63
